sensor_id;sensor_type;location;lat;lon;timestamp;temperature;humidity
21417;DHT22;10869;52.238;10.716;2024-03-07T00:02:19;2.00;99.90
21417;DHT22;10869;52.238;10.716;2024-03-07T00:04:45;2.00;99.90
21417;DHT22;10869;52.238;10.716;2024-03-07T00:07:11;2.00;99.90
21417;DHT22;10869;52.238;10.716;2024-03-07T00:09:37;2.00;99.90
21417;DHT22;10869;52.238;10.716;2024-03-07T00:12:04;2.00;99.90
21417;DHT22;10869;52.238;10.716;2024-03-07T00:14:30;2.00;99.90
21417;DHT22;10869;52.238;10.716;2024-03-07T00:16:58;2.00;99.90
21417;DHT22;10869;52.238;10.716;2024-03-07T00:19:25;2.00;99.90
21417;DHT22;10869;52.238;10.716;2024-03-07T00:21:53;2.00;99.90
21417;DHT22;10869;52.238;10.716;2024-03-07T00:24:20;2.00;99.90
21417;DHT22;10869;52.238;10.716;2024-03-07T00:26:46;2.00;99.90
21417;DHT22;10869;52.238;10.716;2024-03-07T00:29:12;2.10;99.90
21417;DHT22;10869;52.238;10.716;2024-03-07T00:31:37;2.10;99.90
21417;DHT22;10869;52.238;10.716;2024-03-07T00:34:03;2.20;99.90
21417;DHT22;10869;52.238;10.716;2024-03-07T00:36:29;2.30;99.90
21417;DHT22;10869;52.238;10.716;2024-03-07T00:38:54;2.30;99.90
21417;DHT22;10869;52.238;10.716;2024-03-07T00:41:20;2.40;99.90
21417;DHT22;10869;52.238;10.716;2024-03-07T00:43:46;2.50;99.90
21417;DHT22;10869;52.238;10.716;2024-03-07T00:46:12;2.60;99.90
21417;DHT22;10869;52.238;10.716;2024-03-07T00:48:38;2.70;99.90
21417;DHT22;10869;52.238;10.716;2024-03-07T00:51:04;2.70;99.90
21417;DHT22;10869;52.238;10.716;2024-03-07T00:53:30;2.80;99.90
21417;DHT22;10869;52.238;10.716;2024-03-07T00:55:56;2.80;99.90
21417;DHT22;10869;52.238;10.716;2024-03-07T00:58:22;2.90;99.90
21417;DHT22;10869;52.238;10.716;2024-03-07T01:00:48;2.90;99.90
21417;DHT22;10869;52.238;10.716;2024-03-07T01:03:15;3.00;99.90
21417;DHT22;10869;52.238;10.716;2024-03-07T01:05:43;3.00;99.90
21417;DHT22;10869;52.238;10.716;2024-03-07T01:08:09;3.10;99.90
21417;DHT22;10869;52.238;10.716;2024-03-07T01:10:35;3.10;99.90
21417;DHT22;10869;52.238;10.716;2024-03-07T01:13:01;3.10;99.90
21417;DHT22;10869;52.238;10.716;2024-03-07T01:15:28;3.20;99.90
21417;DHT22;10869;52.238;10.716;2024-03-07T01:17:54;3.20;99.90
21417;DHT22;10869;52.238;10.716;2024-03-07T01:23:41;3.30;99.90
21417;DHT22;10869;52.238;10.716;2024-03-07T01:26:07;3.30;99.90
21417;DHT22;10869;52.238;10.716;2024-03-07T01:28:34;3.30;99.90
21417;DHT22;10869;52.238;10.716;2024-03-07T01:30:59;3.40;99.90
21417;DHT22;10869;52.238;10.716;2024-03-07T01:33:25;3.40;99.90
21417;DHT22;10869;52.238;10.716;2024-03-07T01:35:51;3.40;99.90
21417;DHT22;10869;52.238;10.716;2024-03-07T01:38:17;3.40;99.90
21417;DHT22;10869;52.238;10.716;2024-03-07T01:40:43;3.40;99.90
21417;DHT22;10869;52.238;10.716;2024-03-07T01:43:10;3.40;99.90
21417;DHT22;10869;52.238;10.716;2024-03-07T01:45:37;3.40;99.90
21417;DHT22;10869;52.238;10.716;2024-03-07T01:48:08;3.40;99.90
21417;DHT22;10869;52.238;10.716;2024-03-07T01:50:35;3.50;99.90
21417;DHT22;10869;52.238;10.716;2024-03-07T01:53:04;3.40;99.90
21417;DHT22;10869;52.238;10.716;2024-03-07T01:55:32;3.40;99.90
21417;DHT22;10869;52.238;10.716;2024-03-07T01:57:59;3.40;99.90
21417;DHT22;10869;52.238;10.716;2024-03-07T02:00:27;3.40;99.90
21417;DHT22;10869;52.238;10.716;2024-03-07T02:02:53;3.40;99.90
21417;DHT22;10869;52.238;10.716;2024-03-07T02:05:20;3.40;99.90
21417;DHT22;10869;52.238;10.716;2024-03-07T02:07:47;3.40;99.90
21417;DHT22;10869;52.238;10.716;2024-03-07T02:10:12;3.40;99.90
21417;DHT22;10869;52.238;10.716;2024-03-07T02:12:38;3.40;99.90
21417;DHT22;10869;52.238;10.716;2024-03-07T02:15:05;3.40;99.90
21417;DHT22;10869;52.238;10.716;2024-03-07T02:17:31;3.40;99.90
21417;DHT22;10869;52.238;10.716;2024-03-07T02:19:57;3.40;99.90
21417;DHT22;10869;52.238;10.716;2024-03-07T02:22:24;3.40;99.90
21417;DHT22;10869;52.238;10.716;2024-03-07T02:24:52;3.40;99.90
21417;DHT22;10869;52.238;10.716;2024-03-07T02:27:18;3.40;99.90
21417;DHT22;10869;52.238;10.716;2024-03-07T02:29:44;3.40;99.90
21417;DHT22;10869;52.238;10.716;2024-03-07T02:32:09;3.40;99.90
21417;DHT22;10869;52.238;10.716;2024-03-07T02:37:58;3.40;99.90
21417;DHT22;10869;52.238;10.716;2024-03-07T02:40:24;3.50;99.90
21417;DHT22;10869;52.238;10.716;2024-03-07T02:42:50;3.50;99.90
21417;DHT22;10869;52.238;10.716;2024-03-07T02:45:15;3.50;99.90
21417;DHT22;10869;52.238;10.716;2024-03-07T02:47:41;3.50;99.90
21417;DHT22;10869;52.238;10.716;2024-03-07T02:50:09;3.50;99.90
21417;DHT22;10869;52.238;10.716;2024-03-07T02:52:35;3.50;99.90
21417;DHT22;10869;52.238;10.716;2024-03-07T02:55:01;3.50;99.90
21417;DHT22;10869;52.238;10.716;2024-03-07T02:57:30;3.50;99.90
21417;DHT22;10869;52.238;10.716;2024-03-07T02:59:56;3.60;99.90
21417;DHT22;10869;52.238;10.716;2024-03-07T03:02:22;3.60;99.90
21417;DHT22;10869;52.238;10.716;2024-03-07T03:04:48;3.60;99.90
21417;DHT22;10869;52.238;10.716;2024-03-07T03:07:14;3.60;99.90
21417;DHT22;10869;52.238;10.716;2024-03-07T03:09:39;3.60;99.90
21417;DHT22;10869;52.238;10.716;2024-03-07T03:12:12;3.60;99.90
21417;DHT22;10869;52.238;10.716;2024-03-07T03:14:38;3.60;99.90
21417;DHT22;10869;52.238;10.716;2024-03-07T03:17:04;3.60;99.90
21417;DHT22;10869;52.238;10.716;2024-03-07T03:19:29;3.60;99.90
21417;DHT22;10869;52.238;10.716;2024-03-07T03:21:55;3.60;99.90
21417;DHT22;10869;52.238;10.716;2024-03-07T03:24:23;3.60;99.90
21417;DHT22;10869;52.238;10.716;2024-03-07T03:26:49;3.60;99.90
21417;DHT22;10869;52.238;10.716;2024-03-07T03:29:15;3.60;99.90
21417;DHT22;10869;52.238;10.716;2024-03-07T03:31:43;3.60;99.90
21417;DHT22;10869;52.238;10.716;2024-03-07T03:34:09;3.60;99.90
21417;DHT22;10869;52.238;10.716;2024-03-07T03:36:35;3.60;99.90
21417;DHT22;10869;52.238;10.716;2024-03-07T03:39:01;3.60;99.90
21417;DHT22;10869;52.238;10.716;2024-03-07T03:41:26;3.60;99.90
21417;DHT22;10869;52.238;10.716;2024-03-07T03:43:52;3.60;99.90
21417;DHT22;10869;52.238;10.716;2024-03-07T03:46:18;3.60;99.90
21417;DHT22;10869;52.238;10.716;2024-03-07T03:48:44;3.60;99.90
21417;DHT22;10869;52.238;10.716;2024-03-07T03:51:10;3.60;99.90
21417;DHT22;10869;52.238;10.716;2024-03-07T03:53:38;3.60;99.90
21417;DHT22;10869;52.238;10.716;2024-03-07T03:56:04;3.60;99.90
21417;DHT22;10869;52.238;10.716;2024-03-07T03:58:31;3.60;99.90
21417;DHT22;10869;52.238;10.716;2024-03-07T04:00:57;3.70;99.90
21417;DHT22;10869;52.238;10.716;2024-03-07T04:03:25;3.70;99.90
21417;DHT22;10869;52.238;10.716;2024-03-07T04:05:52;3.70;99.90
21417;DHT22;10869;52.238;10.716;2024-03-07T04:08:18;3.70;99.90
21417;DHT22;10869;52.238;10.716;2024-03-07T04:10:45;3.60;99.90
21417;DHT22;10869;52.238;10.716;2024-03-07T04:13:11;3.60;99.90
21417;DHT22;10869;52.238;10.716;2024-03-07T04:15:37;3.60;99.90
21417;DHT22;10869;52.238;10.716;2024-03-07T04:18:03;3.60;99.90
21417;DHT22;10869;52.238;10.716;2024-03-07T04:20:29;3.60;99.90
21417;DHT22;10869;52.238;10.716;2024-03-07T04:22:57;3.60;99.90
21417;DHT22;10869;52.238;10.716;2024-03-07T04:25:23;3.60;99.90
21417;DHT22;10869;52.238;10.716;2024-03-07T04:27:50;3.60;99.90
21417;DHT22;10869;52.238;10.716;2024-03-07T04:30:16;3.60;99.90
21417;DHT22;10869;52.238;10.716;2024-03-07T04:32:42;3.60;99.90
21417;DHT22;10869;52.238;10.716;2024-03-07T04:35:08;3.60;99.90
21417;DHT22;10869;52.238;10.716;2024-03-07T04:37:39;3.60;99.90
21417;DHT22;10869;52.238;10.716;2024-03-07T04:40:07;3.60;99.90
21417;DHT22;10869;52.238;10.716;2024-03-07T04:42:45;3.60;99.90
21417;DHT22;10869;52.238;10.716;2024-03-07T04:45:12;3.60;99.90
21417;DHT22;10869;52.238;10.716;2024-03-07T04:47:42;3.60;99.90
21417;DHT22;10869;52.238;10.716;2024-03-07T04:50:10;3.60;99.90
21417;DHT22;10869;52.238;10.716;2024-03-07T04:52:37;3.60;99.90
21417;DHT22;10869;52.238;10.716;2024-03-07T04:55:05;3.60;99.90
21417;DHT22;10869;52.238;10.716;2024-03-07T04:57:34;3.70;99.90
21417;DHT22;10869;52.238;10.716;2024-03-07T05:00:00;3.70;99.90
21417;DHT22;10869;52.238;10.716;2024-03-07T05:02:26;3.70;99.90
21417;DHT22;10869;52.238;10.716;2024-03-07T05:04:52;3.70;99.90
21417;DHT22;10869;52.238;10.716;2024-03-07T05:10:40;3.70;99.90
21417;DHT22;10869;52.238;10.716;2024-03-07T05:13:07;3.70;99.90
21417;DHT22;10869;52.238;10.716;2024-03-07T05:16:01;3.70;99.90
21417;DHT22;10869;52.238;10.716;2024-03-07T05:18:27;3.70;99.90
21417;DHT22;10869;52.238;10.716;2024-03-07T05:20:53;3.70;99.90
21417;DHT22;10869;52.238;10.716;2024-03-07T05:26:42;3.70;99.90
21417;DHT22;10869;52.238;10.716;2024-03-07T05:29:08;3.80;99.90
21417;DHT22;10869;52.238;10.716;2024-03-07T05:31:36;3.80;99.90
21417;DHT22;10869;52.238;10.716;2024-03-07T05:34:05;3.80;99.90
21417;DHT22;10869;52.238;10.716;2024-03-07T05:36:37;3.80;99.90
21417;DHT22;10869;52.238;10.716;2024-03-07T05:42:32;3.80;99.90
21417;DHT22;10869;52.238;10.716;2024-03-07T05:44:58;3.90;99.90
21417;DHT22;10869;52.238;10.716;2024-03-07T05:47:24;3.90;99.90
21417;DHT22;10869;52.238;10.716;2024-03-07T05:49:49;3.90;99.90
21417;DHT22;10869;52.238;10.716;2024-03-07T05:52:16;3.90;99.90
21417;DHT22;10869;52.238;10.716;2024-03-07T05:54:41;3.90;99.90
21417;DHT22;10869;52.238;10.716;2024-03-07T05:57:09;3.90;99.90
21417;DHT22;10869;52.238;10.716;2024-03-07T05:59:35;4.00;99.90
21417;DHT22;10869;52.238;10.716;2024-03-07T06:02:01;4.00;99.90
21417;DHT22;10869;52.238;10.716;2024-03-07T06:04:27;4.00;99.90
21417;DHT22;10869;52.238;10.716;2024-03-07T06:06:53;4.00;99.90
21417;DHT22;10869;52.238;10.716;2024-03-07T06:09:19;4.00;99.90
21417;DHT22;10869;52.238;10.716;2024-03-07T06:11:48;4.00;99.90
21417;DHT22;10869;52.238;10.716;2024-03-07T06:14:14;4.00;99.90
21417;DHT22;10869;52.238;10.716;2024-03-07T06:16:41;4.00;99.90
21417;DHT22;10869;52.238;10.716;2024-03-07T06:19:08;4.00;99.90
21417;DHT22;10869;52.238;10.716;2024-03-07T06:21:35;4.00;99.90
21417;DHT22;10869;52.238;10.716;2024-03-07T06:24:02;4.00;99.90
21417;DHT22;10869;52.238;10.716;2024-03-07T06:26:29;4.10;99.90
21417;DHT22;10869;52.238;10.716;2024-03-07T06:29:17;4.10;99.90
21417;DHT22;10869;52.238;10.716;2024-03-07T06:31:44;4.10;99.90
21417;DHT22;10869;52.238;10.716;2024-03-07T06:34:13;4.10;99.90
21417;DHT22;10869;52.238;10.716;2024-03-07T06:36:39;4.10;99.90
21417;DHT22;10869;52.238;10.716;2024-03-07T06:39:06;4.20;99.90
21417;DHT22;10869;52.238;10.716;2024-03-07T06:41:33;4.20;99.90
21417;DHT22;10869;52.238;10.716;2024-03-07T06:43:59;4.20;99.90
21417;DHT22;10869;52.238;10.716;2024-03-07T06:46:25;4.20;99.90
21417;DHT22;10869;52.238;10.716;2024-03-07T06:48:50;4.30;99.90
21417;DHT22;10869;52.238;10.716;2024-03-07T06:51:17;4.30;99.90
21417;DHT22;10869;52.238;10.716;2024-03-07T06:53:45;4.30;99.90
21417;DHT22;10869;52.238;10.716;2024-03-07T06:56:15;4.40;99.90
21417;DHT22;10869;52.238;10.716;2024-03-07T06:58:42;4.40;99.90
21417;DHT22;10869;52.238;10.716;2024-03-07T07:01:10;4.40;99.90
21417;DHT22;10869;52.238;10.716;2024-03-07T07:03:37;4.40;99.90
21417;DHT22;10869;52.238;10.716;2024-03-07T07:09:39;4.40;99.90
21417;DHT22;10869;52.238;10.716;2024-03-07T07:15:27;4.30;99.90
21417;DHT22;10869;52.238;10.716;2024-03-07T07:21:15;4.40;99.90
21417;DHT22;10869;52.238;10.716;2024-03-07T07:23:41;4.30;99.90
21417;DHT22;10869;52.238;10.716;2024-03-07T07:29:29;4.40;99.90
21417;DHT22;10869;52.238;10.716;2024-03-07T07:31:55;4.40;99.90
21417;DHT22;10869;52.238;10.716;2024-03-07T07:37:45;4.50;99.90
21417;DHT22;10869;52.238;10.716;2024-03-07T07:43:33;4.50;99.90
21417;DHT22;10869;52.238;10.716;2024-03-07T07:45:59;4.50;99.90
21417;DHT22;10869;52.238;10.716;2024-03-07T07:48:26;4.50;99.90
21417;DHT22;10869;52.238;10.716;2024-03-07T07:50:52;4.60;99.90
21417;DHT22;10869;52.238;10.716;2024-03-07T07:56:40;4.50;99.90
21417;DHT22;10869;52.238;10.716;2024-03-07T07:59:05;4.50;99.90
21417;DHT22;10869;52.238;10.716;2024-03-07T08:01:34;4.50;99.90
21417;DHT22;10869;52.238;10.716;2024-03-07T08:07:22;4.60;99.90
21417;DHT22;10869;52.238;10.716;2024-03-07T08:09:48;4.60;99.90
21417;DHT22;10869;52.238;10.716;2024-03-07T08:12:14;4.60;99.90
21417;DHT22;10869;52.238;10.716;2024-03-07T08:14:40;4.60;99.90
21417;DHT22;10869;52.238;10.716;2024-03-07T08:17:05;4.60;99.90
21417;DHT22;10869;52.238;10.716;2024-03-07T08:19:31;4.60;99.90
21417;DHT22;10869;52.238;10.716;2024-03-07T08:27:06;4.70;99.90
21417;DHT22;10869;52.238;10.716;2024-03-07T08:29:36;4.70;99.90
21417;DHT22;10869;52.238;10.716;2024-03-07T08:32:01;4.80;99.90
21417;DHT22;10869;52.238;10.716;2024-03-07T08:34:28;4.80;99.90
21417;DHT22;10869;52.238;10.716;2024-03-07T08:36:54;4.80;99.90
21417;DHT22;10869;52.238;10.716;2024-03-07T08:39:19;4.80;99.90
21417;DHT22;10869;52.238;10.716;2024-03-07T08:41:55;5.00;99.90
21417;DHT22;10869;52.238;10.716;2024-03-07T08:44:26;5.10;99.90
21417;DHT22;10869;52.238;10.716;2024-03-07T08:46:52;5.40;99.90
21417;DHT22;10869;52.238;10.716;2024-03-07T08:49:17;5.50;99.90
21417;DHT22;10869;52.238;10.716;2024-03-07T08:51:44;5.70;99.90
21417;DHT22;10869;52.238;10.716;2024-03-07T08:54:09;5.80;99.90
21417;DHT22;10869;52.238;10.716;2024-03-07T08:56:35;5.90;99.90
21417;DHT22;10869;52.238;10.716;2024-03-07T08:59:01;6.00;99.90
21417;DHT22;10869;52.238;10.716;2024-03-07T09:01:30;6.00;99.90
21417;DHT22;10869;52.238;10.716;2024-03-07T09:03:56;6.20;99.90
21417;DHT22;10869;52.238;10.716;2024-03-07T09:06:24;6.50;99.90
21417;DHT22;10869;52.238;10.716;2024-03-07T09:08:50;6.60;99.90
21417;DHT22;10869;52.238;10.716;2024-03-07T09:11:16;6.50;99.90
21417;DHT22;10869;52.238;10.716;2024-03-07T09:13:42;6.30;99.90
21417;DHT22;10869;52.238;10.716;2024-03-07T09:16:08;6.20;99.90
21417;DHT22;10869;52.238;10.716;2024-03-07T09:21:56;5.90;99.90
21417;DHT22;10869;52.238;10.716;2024-03-07T09:24:22;5.80;99.90
21417;DHT22;10869;52.238;10.716;2024-03-07T09:26:49;5.60;99.90
21417;DHT22;10869;52.238;10.716;2024-03-07T09:29:18;5.50;99.90
21417;DHT22;10869;52.238;10.716;2024-03-07T09:31:45;5.60;99.90
21417;DHT22;10869;52.238;10.716;2024-03-07T09:34:12;5.90;99.90
21417;DHT22;10869;52.238;10.716;2024-03-07T09:36:39;6.30;99.90
21417;DHT22;10869;52.238;10.716;2024-03-07T09:39:08;6.80;99.90
21417;DHT22;10869;52.238;10.716;2024-03-07T09:41:41;7.20;99.90
21417;DHT22;10869;52.238;10.716;2024-03-07T09:44:14;7.40;99.90
21417;DHT22;10869;52.238;10.716;2024-03-07T09:46:48;7.50;99.90
21417;DHT22;10869;52.238;10.716;2024-03-07T09:49:14;7.70;99.90
21417;DHT22;10869;52.238;10.716;2024-03-07T09:52:04;7.60;99.90
21417;DHT22;10869;52.238;10.716;2024-03-07T09:54:41;7.70;99.90
21417;DHT22;10869;52.238;10.716;2024-03-07T09:57:11;8.00;99.90
21417;DHT22;10869;52.238;10.716;2024-03-07T09:59:43;8.00;99.90
21417;DHT22;10869;52.238;10.716;2024-03-07T10:06:03;7.60;99.90
21417;DHT22;10869;52.238;10.716;2024-03-07T10:32:58;6.90;99.90
21417;DHT22;10869;52.238;10.716;2024-03-07T10:44:48;7.80;99.90
21417;DHT22;10869;52.238;10.716;2024-03-07T11:00:12;7.70;99.90
21417;DHT22;10869;52.238;10.716;2024-03-07T11:02:57;7.30;99.90
21417;DHT22;10869;52.238;10.716;2024-03-07T11:05:29;7.10;99.90
21417;DHT22;10869;52.238;10.716;2024-03-07T11:07:59;7.10;99.90
21417;DHT22;10869;52.238;10.716;2024-03-07T11:10:31;7.00;99.90
21417;DHT22;10869;52.238;10.716;2024-03-07T11:16:40;7.00;99.90
21417;DHT22;10869;52.238;10.716;2024-03-07T11:19:36;7.10;99.90
21417;DHT22;10869;52.238;10.716;2024-03-07T11:22:07;7.00;99.90
21417;DHT22;10869;52.238;10.716;2024-03-07T11:28:16;7.00;99.90
21417;DHT22;10869;52.238;10.716;2024-03-07T11:30:46;7.10;99.90
21417;DHT22;10869;52.238;10.716;2024-03-07T11:33:12;7.40;99.90
21417;DHT22;10869;52.238;10.716;2024-03-07T11:35:40;7.50;99.90
21417;DHT22;10869;52.238;10.716;2024-03-07T11:38:14;7.40;99.90
21417;DHT22;10869;52.238;10.716;2024-03-07T11:43:08;7.60;99.90
21417;DHT22;10869;52.238;10.716;2024-03-07T11:45:34;7.60;99.90
21417;DHT22;10869;52.238;10.716;2024-03-07T11:48:04;7.50;99.90
21417;DHT22;10869;52.238;10.716;2024-03-07T11:50:37;7.50;99.90
21417;DHT22;10869;52.238;10.716;2024-03-07T11:53:04;7.50;99.90
21417;DHT22;10869;52.238;10.716;2024-03-07T11:55:37;7.40;99.90
21417;DHT22;10869;52.238;10.716;2024-03-07T11:58:30;7.60;99.90
21417;DHT22;10869;52.238;10.716;2024-03-07T12:00:57;7.60;99.90
21417;DHT22;10869;52.238;10.716;2024-03-07T12:03:24;7.70;99.90
21417;DHT22;10869;52.238;10.716;2024-03-07T12:05:51;7.80;99.90
21417;DHT22;10869;52.238;10.716;2024-03-07T12:08:18;7.80;99.90
21417;DHT22;10869;52.238;10.716;2024-03-07T12:10:48;7.80;99.90
21417;DHT22;10869;52.238;10.716;2024-03-07T12:13:19;7.90;99.90
21417;DHT22;10869;52.238;10.716;2024-03-07T12:15:45;7.80;99.90
21417;DHT22;10869;52.238;10.716;2024-03-07T12:26:48;7.30;99.90
21417;DHT22;10869;52.238;10.716;2024-03-07T12:32:36;7.40;99.90
21417;DHT22;10869;52.238;10.716;2024-03-07T12:35:05;7.30;99.90
21417;DHT22;10869;52.238;10.716;2024-03-07T12:37:40;7.20;99.90
21417;DHT22;10869;52.238;10.716;2024-03-07T12:40:13;7.60;99.90
21417;DHT22;10869;52.238;10.716;2024-03-07T12:46:07;8.40;99.90
21417;DHT22;10869;52.238;10.716;2024-03-07T12:51:56;8.30;99.90
21417;DHT22;10869;52.238;10.716;2024-03-07T12:57:45;8.50;99.90
21417;DHT22;10869;52.238;10.716;2024-03-07T13:02:47;8.90;99.90
21417;DHT22;10869;52.238;10.716;2024-03-07T13:08:35;9.20;99.90
21417;DHT22;10869;52.238;10.716;2024-03-07T13:14:24;9.40;99.80
21417;DHT22;10869;52.238;10.716;2024-03-07T13:20:15;9.50;99.70
21417;DHT22;10869;52.238;10.716;2024-03-07T13:22:45;9.80;99.90
21417;DHT22;10869;52.238;10.716;2024-03-07T13:25:23;9.90;99.90
21417;DHT22;10869;52.238;10.716;2024-03-07T13:28:06;10.00;99.90
21417;DHT22;10869;52.238;10.716;2024-03-07T13:30:44;10.10;99.70
21417;DHT22;10869;52.238;10.716;2024-03-07T13:33:17;10.00;99.90
21417;DHT22;10869;52.238;10.716;2024-03-07T13:36:06;10.10;99.90
21417;DHT22;10869;52.238;10.716;2024-03-07T13:41:15;10.10;99.50
21417;DHT22;10869;52.238;10.716;2024-03-07T13:44:11;10.10;99.40
21417;DHT22;10869;52.238;10.716;2024-03-07T13:50:41;9.60;99.20
21417;DHT22;10869;52.238;10.716;2024-03-07T13:53:26;9.60;99.10
21417;DHT22;10869;52.238;10.716;2024-03-07T14:08:25;9.10;98.50
21417;DHT22;10869;52.238;10.716;2024-03-07T14:48:08;8.60;98.80
21417;DHT22;10869;52.238;10.716;2024-03-07T14:50:45;8.60;98.90
21417;DHT22;10869;52.238;10.716;2024-03-07T14:53:12;8.70;99.20
21417;DHT22;10869;52.238;10.716;2024-03-07T14:55:40;8.60;98.50
21417;DHT22;10869;52.238;10.716;2024-03-07T14:58:06;8.50;99.00
21417;DHT22;10869;52.238;10.716;2024-03-07T15:00:36;8.50;98.40
21417;DHT22;10869;52.238;10.716;2024-03-07T15:03:08;8.60;99.40
21417;DHT22;10869;52.238;10.716;2024-03-07T15:05:34;8.70;99.20
21417;DHT22;10869;52.238;10.716;2024-03-07T15:23:33;7.90;98.80
21417;DHT22;10869;52.238;10.716;2024-03-07T15:25:59;7.70;98.80
21417;DHT22;10869;52.238;10.716;2024-03-07T15:33:35;7.90;98.80
21417;DHT22;10869;52.238;10.716;2024-03-07T15:36:01;7.90;99.10
21417;DHT22;10869;52.238;10.716;2024-03-07T15:41:53;7.90;98.90
21417;DHT22;10869;52.238;10.716;2024-03-07T15:44:20;7.80;98.90
21417;DHT22;10869;52.238;10.716;2024-03-07T15:46:46;7.80;99.70
21417;DHT22;10869;52.238;10.716;2024-03-07T15:49:12;7.80;99.60
21417;DHT22;10869;52.238;10.716;2024-03-07T15:51:38;7.80;99.20
21417;DHT22;10869;52.238;10.716;2024-03-07T15:54:04;7.70;98.50
21417;DHT22;10869;52.238;10.716;2024-03-07T15:56:30;7.70;98.90
21417;DHT22;10869;52.238;10.716;2024-03-07T15:58:56;7.60;99.40
21417;DHT22;10869;52.238;10.716;2024-03-07T16:01:22;7.60;99.60
21417;DHT22;10869;52.238;10.716;2024-03-07T16:03:48;7.50;99.20
21417;DHT22;10869;52.238;10.716;2024-03-07T16:06:14;7.50;99.30
21417;DHT22;10869;52.238;10.716;2024-03-07T16:08:42;7.40;99.10
21417;DHT22;10869;52.238;10.716;2024-03-07T16:11:08;7.30;98.80
21417;DHT22;10869;52.238;10.716;2024-03-07T16:13:34;7.20;99.50
21417;DHT22;10869;52.238;10.716;2024-03-07T16:16:00;7.10;99.60
21417;DHT22;10869;52.238;10.716;2024-03-07T16:18:30;7.00;99.00
21417;DHT22;10869;52.238;10.716;2024-03-07T16:20:56;7.00;99.90
21417;DHT22;10869;52.238;10.716;2024-03-07T16:23:23;6.90;99.90
21417;DHT22;10869;52.238;10.716;2024-03-07T16:25:52;6.90;99.70
21417;DHT22;10869;52.238;10.716;2024-03-07T16:28:17;6.80;99.70
21417;DHT22;10869;52.238;10.716;2024-03-07T16:34:09;6.60;99.90
21417;DHT22;10869;52.238;10.716;2024-03-07T16:39:56;6.40;99.90
21417;DHT22;10869;52.238;10.716;2024-03-07T16:45:44;6.20;99.90
21417;DHT22;10869;52.238;10.716;2024-03-07T16:48:10;6.20;99.90
21417;DHT22;10869;52.238;10.716;2024-03-07T16:50:37;6.10;99.90
21417;DHT22;10869;52.238;10.716;2024-03-07T16:53:06;6.00;99.90
21417;DHT22;10869;52.238;10.716;2024-03-07T16:55:35;6.00;99.90
21417;DHT22;10869;52.238;10.716;2024-03-07T16:58:05;5.90;99.90
21417;DHT22;10869;52.238;10.716;2024-03-07T17:00:37;5.80;99.90
21417;DHT22;10869;52.238;10.716;2024-03-07T17:03:05;5.70;99.90
21417;DHT22;10869;52.238;10.716;2024-03-07T17:08:54;5.60;99.90
21417;DHT22;10869;52.238;10.716;2024-03-07T17:11:19;5.50;99.90
21417;DHT22;10869;52.238;10.716;2024-03-07T17:13:57;5.50;99.90
21417;DHT22;10869;52.238;10.716;2024-03-07T17:19:48;5.40;99.90
21417;DHT22;10869;52.238;10.716;2024-03-07T17:22:19;5.30;99.90
21417;DHT22;10869;52.238;10.716;2024-03-07T17:24:46;5.20;99.90
21417;DHT22;10869;52.238;10.716;2024-03-07T17:27:14;5.10;99.90
21417;DHT22;10869;52.238;10.716;2024-03-07T17:29:39;5.10;99.90
21417;DHT22;10869;52.238;10.716;2024-03-07T17:32:09;5.00;99.90
21417;DHT22;10869;52.238;10.716;2024-03-07T17:34:37;5.00;99.90
21417;DHT22;10869;52.238;10.716;2024-03-07T17:37:06;4.90;99.90
21417;DHT22;10869;52.238;10.716;2024-03-07T17:39:32;4.80;99.90
21417;DHT22;10869;52.238;10.716;2024-03-07T17:41:58;4.80;99.90
21417;DHT22;10869;52.238;10.716;2024-03-07T17:44:24;4.80;99.90
21417;DHT22;10869;52.238;10.716;2024-03-07T17:50:14;4.60;99.90
21417;DHT22;10869;52.238;10.716;2024-03-07T17:52:44;4.60;99.90
21417;DHT22;10869;52.238;10.716;2024-03-07T17:55:11;4.60;99.90
21417;DHT22;10869;52.238;10.716;2024-03-07T17:57:42;4.50;99.90
21417;DHT22;10869;52.238;10.716;2024-03-07T18:00:10;4.40;99.90
21417;DHT22;10869;52.238;10.716;2024-03-07T18:06:03;4.30;99.90
21417;DHT22;10869;52.238;10.716;2024-03-07T18:08:32;4.20;99.90
21417;DHT22;10869;52.238;10.716;2024-03-07T18:10:59;4.10;99.90
21417;DHT22;10869;52.238;10.716;2024-03-07T18:16:47;4.10;99.90
21417;DHT22;10869;52.238;10.716;2024-03-07T18:22:37;4.00;99.90
21417;DHT22;10869;52.238;10.716;2024-03-07T18:28:25;4.00;99.90
21417;DHT22;10869;52.238;10.716;2024-03-07T18:31:02;4.00;99.90
21417;DHT22;10869;52.238;10.716;2024-03-07T18:40:23;3.90;99.90
21417;DHT22;10869;52.238;10.716;2024-03-07T18:42:50;3.90;99.90
21417;DHT22;10869;52.238;10.716;2024-03-07T18:45:19;4.00;99.90
21417;DHT22;10869;52.238;10.716;2024-03-07T18:50:40;4.00;99.90
21417;DHT22;10869;52.238;10.716;2024-03-07T18:53:11;4.00;99.90
21417;DHT22;10869;52.238;10.716;2024-03-07T18:55:40;4.00;99.90
21417;DHT22;10869;52.238;10.716;2024-03-07T18:58:09;4.00;99.90
21417;DHT22;10869;52.238;10.716;2024-03-07T19:00:35;4.00;99.90
21417;DHT22;10869;52.238;10.716;2024-03-07T19:06:26;4.00;99.90
21417;DHT22;10869;52.238;10.716;2024-03-07T19:08:52;4.00;99.90
21417;DHT22;10869;52.238;10.716;2024-03-07T19:11:19;3.90;99.90
21417;DHT22;10869;52.238;10.716;2024-03-07T19:13:45;3.80;99.90
21417;DHT22;10869;52.238;10.716;2024-03-07T19:16:11;3.80;99.90
21417;DHT22;10869;52.238;10.716;2024-03-07T19:18:39;3.80;99.90
21417;DHT22;10869;52.238;10.716;2024-03-07T19:24:27;3.90;99.90
21417;DHT22;10869;52.238;10.716;2024-03-07T19:26:53;3.80;99.90
21417;DHT22;10869;52.238;10.716;2024-03-07T19:29:20;3.80;99.90
21417;DHT22;10869;52.238;10.716;2024-03-07T19:31:47;3.70;99.90
21417;DHT22;10869;52.238;10.716;2024-03-07T19:34:14;3.70;99.90
21417;DHT22;10869;52.238;10.716;2024-03-07T19:36:49;3.70;99.90
21417;DHT22;10869;52.238;10.716;2024-03-07T19:39:16;3.70;99.90
21417;DHT22;10869;52.238;10.716;2024-03-07T19:45:04;3.60;99.90
21417;DHT22;10869;52.238;10.716;2024-03-07T19:47:29;3.50;99.90
21417;DHT22;10869;52.238;10.716;2024-03-07T19:53:18;3.40;99.90
21417;DHT22;10869;52.238;10.716;2024-03-07T19:55:45;3.40;99.90
21417;DHT22;10869;52.238;10.716;2024-03-07T20:01:34;3.30;99.90
21417;DHT22;10869;52.238;10.716;2024-03-07T20:04:09;3.30;99.90
21417;DHT22;10869;52.238;10.716;2024-03-07T20:58:43;2.90;99.90
21417;DHT22;10869;52.238;10.716;2024-03-07T21:01:13;2.90;99.90
21417;DHT22;10869;52.238;10.716;2024-03-07T21:07:01;2.90;99.90
21417;DHT22;10869;52.238;10.716;2024-03-07T21:09:27;2.90;99.90
21417;DHT22;10869;52.238;10.716;2024-03-07T21:11:55;2.80;99.90
21417;DHT22;10869;52.238;10.716;2024-03-07T21:17:43;2.80;99.90
21417;DHT22;10869;52.238;10.716;2024-03-07T21:20:14;2.80;99.90
21417;DHT22;10869;52.238;10.716;2024-03-07T21:26:31;2.70;99.90